createdAt,value
2023-02-05T00:01:50.764Z,86.33
2023-02-05T00:04:19.030Z,86.30
2023-02-05T00:06:47.082Z,86.36
2023-02-05T00:09:15.177Z,86.41
2023-02-05T00:11:43.175Z,86.63
2023-02-05T00:14:12.677Z,87.01
2023-02-05T00:16:40.754Z,86.96
2023-02-05T00:19:08.906Z,87.37
2023-02-05T00:21:36.931Z,86.85
2023-02-05T00:24:05.487Z,87.03
2023-02-05T00:26:33.653Z,86.82
2023-02-05T00:29:01.700Z,86.67
2023-02-05T00:31:31.274Z,85.92
2023-02-05T00:33:59.624Z,85.69
2023-02-05T00:36:28.559Z,85.66
2023-02-05T00:38:56.948Z,85.96
2023-02-05T00:41:25.274Z,85.42
2023-02-05T00:43:53.460Z,85.79
2023-02-05T00:46:21.581Z,84.88
2023-02-05T00:48:51.059Z,83.89
2023-02-05T00:51:19.113Z,83.70
2023-02-05T00:53:47.247Z,83.23
2023-02-05T00:56:15.333Z,83.04
2023-02-05T00:58:47.554Z,83.25
2023-02-05T01:01:15.886Z,84.27
2023-02-05T01:03:44.658Z,85.04
2023-02-05T01:06:15.070Z,85.52
2023-02-05T01:08:43.201Z,85.38
2023-02-05T01:11:11.634Z,86.12
2023-02-05T01:13:40.888Z,85.73
2023-02-05T01:16:10.410Z,85.37
2023-02-05T01:18:38.996Z,85.46
2023-02-05T01:21:07.215Z,85.83
2023-02-05T01:23:36.703Z,84.76
2023-02-05T01:26:04.909Z,83.92
2023-02-05T01:28:33.026Z,83.63
2023-02-05T01:31:01.286Z,83.99
2023-02-05T01:33:29.828Z,84.91
2023-02-05T01:35:58.057Z,84.61
2023-02-05T01:38:26.088Z,85.08
2023-02-05T01:40:55.548Z,85.21
2023-02-05T01:43:23.958Z,84.63
2023-02-05T01:46:04.889Z,84.75
2023-02-05T01:48:38.304Z,83.98
2023-02-05T01:51:10.048Z,83.95
2023-02-05T01:53:39.722Z,83.71
2023-02-05T01:56:13.909Z,83.30
2023-02-05T01:58:47.111Z,83.08
2023-02-05T02:01:15.266Z,81.86
2023-02-05T02:03:43.353Z,82.61
2023-02-05T02:06:11.446Z,82.87
2023-02-05T02:08:39.796Z,83.03
2023-02-05T02:11:12.028Z,85.42
2023-02-05T02:13:41.921Z,86.06
2023-02-05T02:16:10.488Z,86.27
2023-02-05T02:18:40.480Z,87.40
2023-02-05T02:21:35.528Z,87.19
2023-02-05T02:24:21.528Z,86.92
2023-02-05T02:27:03.987Z,86.89
2023-02-05T02:29:40.286Z,86.65
2023-02-05T02:32:17.175Z,86.30
2023-02-05T02:34:50.310Z,85.93
2023-02-05T02:37:25.335Z,85.21
2023-02-05T02:40:00.322Z,84.87
2023-02-05T02:42:35.690Z,84.62
2023-02-05T02:45:09.286Z,84.51
2023-02-05T02:47:42.047Z,84.20
2023-02-05T02:50:14.357Z,83.33
2023-02-05T02:52:47.100Z,82.74
2023-02-05T02:55:17.657Z,83.37
2023-02-05T02:57:52.034Z,83.41
2023-02-05T03:00:26.247Z,83.50
2023-02-05T03:03:04.824Z,82.81
2023-02-05T03:05:35.233Z,82.84
2023-02-05T03:08:09.316Z,83.62
2023-02-05T03:10:42.793Z,83.25
2023-02-05T03:13:12.269Z,82.84
2023-02-05T03:15:46.875Z,82.89
2023-02-05T03:18:18.040Z,83.35
2023-02-05T03:20:50.870Z,83.62
2023-02-05T03:23:20.061Z,83.01
2023-02-05T03:25:48.241Z,83.61
2023-02-05T03:28:19.800Z,83.24
2023-02-05T03:30:57.269Z,83.75
2023-02-05T03:33:44.812Z,84.91
2023-02-05T03:36:21.710Z,84.97
2023-02-05T03:39:12.155Z,84.35
2023-02-05T03:41:59.508Z,85.38
2023-02-05T03:45:00.430Z,85.62
2023-02-05T03:47:39.456Z,85.84
2023-02-05T03:50:19.161Z,86.23
2023-02-05T03:52:52.829Z,85.91
2023-02-05T03:55:25.015Z,85.65
2023-02-05T03:57:57.640Z,85.67
2023-02-05T04:00:26.725Z,85.34
2023-02-05T04:02:58.183Z,84.80
2023-02-05T04:05:31.206Z,84.86
2023-02-05T04:08:01.954Z,84.69
2023-02-05T04:10:35.677Z,84.04
2023-02-05T04:13:04.846Z,84.35
2023-02-05T04:15:34.802Z,84.30
2023-02-05T04:18:08.412Z,83.97
2023-02-05T04:20:36.666Z,84.27
2023-02-05T04:23:05.204Z,84.33
2023-02-05T04:25:35.182Z,84.88
2023-02-05T04:28:03.566Z,84.63
2023-02-05T04:30:32.076Z,83.91
2023-02-05T04:33:00.824Z,84.23
2023-02-05T04:35:30.341Z,84.37
2023-02-05T04:37:58.966Z,83.88
2023-02-05T04:40:27.311Z,84.21
2023-02-05T04:42:55.332Z,83.64
2023-02-05T04:45:24.002Z,83.29
2023-02-05T04:47:52.005Z,83.34
2023-02-05T04:50:20.243Z,82.30
2023-02-05T04:52:49.717Z,82.80
2023-02-05T04:55:18.022Z,82.51
2023-02-05T04:57:46.072Z,81.28
2023-02-05T05:00:15.451Z,81.52
2023-02-05T05:02:43.490Z,81.63
2023-02-05T05:05:12.077Z,81.15
2023-02-05T05:07:40.229Z,81.44
2023-02-05T05:10:10.937Z,81.81
2023-02-05T05:12:39.667Z,81.86
2023-02-05T05:15:09.169Z,82.45
2023-02-05T05:17:37.222Z,82.13
2023-02-05T05:20:05.867Z,82.09
2023-02-05T05:22:33.928Z,82.04
2023-02-05T05:25:01.993Z,82.06
2023-02-05T05:27:31.412Z,81.36
2023-02-05T05:29:59.480Z,81.44
2023-02-05T05:32:27.535Z,81.26
2023-02-05T05:34:57.224Z,80.63
2023-02-05T05:37:25.373Z,80.88
2023-02-05T05:40:10.663Z,81.38
2023-02-05T05:42:57.980Z,81.35
2023-02-05T05:45:26.425Z,83.02
2023-02-05T05:47:54.455Z,83.60
2023-02-05T05:50:22.568Z,83.89
2023-02-05T05:52:50.611Z,83.67
2023-02-05T05:55:18.816Z,84.53
2023-02-05T05:57:48.349Z,84.80
2023-02-05T06:00:16.893Z,84.63
2023-02-05T06:02:44.998Z,84.09
2023-02-05T06:05:13.104Z,83.43
2023-02-05T06:07:41.136Z,83.73
2023-02-05T06:10:09.970Z,83.91
2023-02-05T06:12:38.170Z,83.39
2023-02-05T06:15:08.778Z,83.08
2023-02-05T06:17:36.850Z,81.71
2023-02-05T06:20:05.419Z,81.47
2023-02-05T06:22:33.618Z,80.86
2023-02-05T06:25:02.293Z,80.71
2023-02-05T06:27:30.355Z,79.86
2023-02-05T06:29:58.464Z,80.37
2023-02-05T06:32:28.769Z,79.88
2023-02-05T06:34:56.909Z,80.04
2023-02-05T06:37:34.128Z,79.37
2023-02-05T06:40:06.956Z,78.16
2023-02-05T06:42:35.001Z,77.42
2023-02-05T06:45:03.150Z,78.08
2023-02-05T06:47:32.582Z,78.01
2023-02-05T06:50:00.652Z,78.35
2023-02-05T06:52:28.716Z,77.54
2023-02-05T06:54:56.757Z,76.96
2023-02-05T06:57:24.953Z,77.14
2023-02-05T06:59:53.131Z,75.95
2023-02-05T07:02:21.280Z,76.17
2023-02-05T07:04:50.849Z,75.22
2023-02-05T07:07:18.880Z,74.84
2023-02-05T07:09:46.944Z,74.66
2023-02-05T07:12:15.047Z,74.30
2023-02-05T07:14:43.946Z,74.79
2023-02-05T07:17:11.952Z,76.75
2023-02-05T07:19:40.100Z,77.87
2023-02-05T07:22:10.913Z,78.21
2023-02-05T07:24:39.065Z,77.20
2023-02-05T07:27:07.111Z,76.05
2023-02-05T07:29:35.163Z,76.18
2023-02-05T07:32:03.383Z,77.20
2023-02-05T07:34:31.451Z,77.98
2023-02-05T07:36:59.483Z,77.42
2023-02-05T07:39:29.235Z,76.94
2023-02-05T07:41:57.435Z,77.36
2023-02-05T07:44:37.195Z,79.31
2023-02-05T07:47:05.310Z,81.30
2023-02-05T07:49:33.366Z,82.20
2023-02-05T07:52:01.377Z,82.79
2023-02-05T07:54:30.912Z,83.84
2023-02-05T07:57:00.172Z,83.80
2023-02-05T07:59:28.514Z,84.48
2023-02-05T08:01:56.528Z,83.88
2023-02-05T08:04:24.707Z,83.79
2023-02-05T08:06:52.813Z,82.07
2023-02-05T08:09:20.923Z,81.51
2023-02-05T08:11:50.923Z,81.50
2023-02-05T08:14:18.970Z,82.20
2023-02-05T08:16:47.128Z,80.83
2023-02-05T08:19:17.903Z,80.43
2023-02-05T08:21:46.229Z,79.62
2023-02-05T08:24:14.319Z,79.51
2023-02-05T08:26:42.331Z,79.41
2023-02-05T08:29:12.504Z,79.77
2023-02-05T08:31:40.602Z,78.08
2023-02-05T08:34:08.649Z,78.83
2023-02-05T08:36:36.682Z,77.92
2023-02-05T08:39:05.212Z,77.36
2023-02-05T08:41:33.292Z,77.21
2023-02-05T08:44:01.361Z,77.06
2023-02-05T08:46:40.372Z,75.84
2023-02-05T08:49:17.152Z,75.36
2023-02-05T08:51:45.207Z,76.22
2023-02-05T08:54:15.321Z,76.34
2023-02-05T08:56:44.773Z,76.19
2023-02-05T08:59:13.270Z,76.01
2023-02-05T09:01:43.306Z,76.52
2023-02-05T09:04:15.237Z,76.70
2023-02-05T09:06:43.955Z,76.55
2023-02-05T09:09:12.882Z,75.38
2023-02-05T09:11:41.448Z,76.29
2023-02-05T09:14:10.183Z,74.77
2023-02-05T09:16:38.407Z,73.83
2023-02-05T09:19:08.206Z,73.40
2023-02-05T09:21:36.281Z,73.14
2023-02-05T09:24:04.759Z,72.72
2023-02-05T09:26:32.771Z,72.51
2023-02-05T09:29:00.795Z,72.01
2023-02-05T09:31:28.916Z,71.27
2023-02-05T09:33:57.426Z,71.48
2023-02-05T09:36:26.876Z,72.41
2023-02-05T09:39:11.826Z,72.99
2023-02-05T09:41:54.515Z,73.88
2023-02-05T09:44:37.299Z,74.78
2023-02-05T09:47:12.509Z,74.41
2023-02-05T09:49:46.873Z,74.03
2023-02-05T09:52:20.978Z,73.64
2023-02-05T09:54:54.025Z,73.39
2023-02-05T09:57:33.705Z,74.10
2023-02-05T10:00:02.580Z,73.86
2023-02-05T10:02:50.081Z,72.55
2023-02-05T10:05:18.911Z,72.12
2023-02-05T10:07:58.701Z,72.40
2023-02-05T10:10:29.139Z,72.60
2023-02-05T10:13:35.864Z,74.22
2023-02-05T10:16:35.120Z,75.57
2023-02-05T10:19:28.130Z,74.86
2023-02-05T10:22:15.602Z,75.73
2023-02-05T10:25:05.216Z,75.59
2023-02-05T10:27:45.488Z,75.41
2023-02-05T10:30:22.575Z,75.06
2023-02-05T10:32:57.703Z,76.29
2023-02-05T10:35:36.123Z,76.21
2023-02-05T10:38:07.325Z,76.20
2023-02-05T10:40:44.129Z,76.67
2023-02-05T10:43:21.450Z,75.81
2023-02-05T10:45:51.017Z,75.26
2023-02-05T10:48:38.311Z,75.64
2023-02-05T10:51:08.217Z,74.26
2023-02-05T10:53:37.115Z,74.66
2023-02-05T10:56:07.730Z,76.43
2023-02-05T10:58:44.565Z,75.55
2023-02-05T11:01:17.503Z,76.35
2023-02-05T11:03:55.149Z,76.81
2023-02-05T11:06:27.148Z,75.60
2023-02-05T11:08:55.283Z,74.76
2023-02-05T11:11:28.223Z,73.59
2023-02-05T11:13:59.102Z,73.50
2023-02-05T11:16:38.697Z,73.17
2023-02-05T11:19:19.581Z,73.66
2023-02-05T11:21:51.469Z,71.98
2023-02-05T11:24:31.768Z,72.44
2023-02-05T11:27:36.804Z,72.77
2023-02-05T11:30:49.599Z,70.45
2023-02-05T11:33:24.422Z,67.84
2023-02-05T11:35:59.692Z,69.95
2023-02-05T11:38:48.398Z,67.54
2023-02-05T11:41:30.659Z,68.47
2023-02-05T11:44:01.950Z,68.56
2023-02-05T11:46:38.900Z,68.82
2023-02-05T11:49:06.994Z,68.47
2023-02-05T11:51:43.164Z,67.71
2023-02-05T11:54:21.000Z,67.17
2023-02-05T11:57:02.893Z,66.21
2023-02-05T11:59:31.032Z,66.53
2023-02-05T12:02:28.538Z,66.80
2023-02-05T12:05:02.124Z,66.59
2023-02-05T12:07:35.790Z,65.15
2023-02-05T12:10:03.930Z,64.09
2023-02-05T12:12:39.532Z,63.87
2023-02-05T12:15:17.541Z,65.23
2023-02-05T12:17:56.917Z,64.93
2023-02-05T12:20:30.072Z,66.46
2023-02-05T12:23:30.667Z,64.95
2023-02-05T12:26:19.905Z,63.79
2023-02-05T12:28:58.316Z,66.08
2023-02-05T12:31:40.476Z,66.37
2023-02-05T12:34:24.375Z,68.06
2023-02-05T12:37:19.354Z,65.55
2023-02-05T12:39:53.580Z,65.63
2023-02-05T12:42:33.380Z,65.62
2023-02-05T12:45:19.893Z,65.94
2023-02-05T12:48:01.599Z,66.65
2023-02-05T12:51:01.262Z,67.63
2023-02-05T12:53:44.965Z,68.71
2023-02-05T12:56:28.100Z,68.54
2023-02-05T12:59:00.926Z,67.96
2023-02-05T13:01:38.127Z,67.28
2023-02-05T13:04:08.475Z,67.11
2023-02-05T13:06:42.997Z,67.52
2023-02-05T13:09:20.493Z,68.28
2023-02-05T13:11:56.836Z,69.16
2023-02-05T13:14:28.584Z,69.06
2023-02-05T13:17:04.508Z,69.49
2023-02-05T13:19:36.134Z,69.67
2023-02-05T13:22:31.348Z,69.67
2023-02-05T13:25:24.828Z,68.84
2023-02-05T13:28:19.496Z,69.26
2023-02-05T13:30:52.432Z,69.24
2023-02-05T13:33:20.594Z,68.92
2023-02-05T13:35:58.655Z,69.46
2023-02-05T13:38:42.735Z,69.18
2023-02-05T13:41:30.815Z,69.56
2023-02-05T13:44:33.782Z,70.38
2023-02-05T13:47:30.697Z,69.91
2023-02-05T13:50:16.492Z,70.25
2023-02-05T13:53:09.825Z,69.75
2023-02-05T13:55:52.720Z,70.15
2023-02-05T13:58:24.336Z,70.41
2023-02-05T14:01:00.745Z,70.68
2023-02-05T14:03:36.112Z,70.52
2023-02-05T14:06:22.739Z,70.63
2023-02-05T14:08:57.982Z,70.24
2023-02-05T14:11:27.994Z,69.89
2023-02-05T14:14:21.482Z,70.54
2023-02-05T14:16:51.464Z,70.87
2023-02-05T14:19:23.266Z,71.42
2023-02-05T14:22:03.700Z,70.14
2023-02-05T14:24:50.080Z,70.50
2023-02-05T14:27:55.366Z,69.68
2023-02-05T14:30:48.045Z,69.99
2023-02-05T14:33:35.392Z,70.61
2023-02-05T14:36:30.161Z,70.59
2023-02-05T14:39:02.028Z,70.31
2023-02-05T14:41:33.810Z,69.78
2023-02-05T14:44:05.562Z,69.83
2023-02-05T14:46:39.951Z,69.57
2023-02-05T14:49:22.026Z,70.41
2023-02-05T14:51:54.676Z,69.33
2023-02-05T14:54:25.667Z,70.03
2023-02-05T14:57:08.609Z,69.17
2023-02-05T14:59:43.831Z,71.26
2023-02-05T15:02:49.561Z,70.98
2023-02-05T15:05:21.254Z,72.95
2023-02-05T15:07:51.883Z,70.90
2023-02-05T15:10:25.386Z,71.41
2023-02-05T15:13:02.776Z,71.50
2023-02-05T15:15:35.444Z,70.67
2023-02-05T15:18:10.513Z,69.11
2023-02-05T15:20:40.540Z,70.63
2023-02-05T15:23:21.818Z,71.22
2023-02-05T15:25:57.299Z,71.76
2023-02-05T15:28:30.356Z,72.08
2023-02-05T15:31:27.297Z,72.00
2023-02-05T15:34:07.642Z,70.55
2023-02-05T15:36:40.176Z,70.34
2023-02-05T15:39:19.842Z,71.02
2023-02-05T15:41:49.162Z,70.82
2023-02-05T15:44:27.455Z,71.20
2023-02-05T15:46:58.981Z,71.32
2023-02-05T15:49:32.902Z,71.53
2023-02-05T15:52:02.086Z,72.55
2023-02-05T15:54:31.942Z,74.10
2023-02-05T15:57:00.256Z,73.32
2023-02-05T15:59:31.015Z,73.54
2023-02-05T16:02:07.173Z,73.66
2023-02-05T16:04:37.570Z,74.79
2023-02-05T16:07:20.426Z,74.82
2023-02-05T16:09:49.526Z,73.46
2023-02-05T16:12:17.968Z,73.87
2023-02-05T16:14:46.164Z,73.05
2023-02-05T16:17:20.796Z,73.06
2023-02-05T16:19:52.982Z,73.87
2023-02-05T16:22:34.923Z,73.39
2023-02-05T16:25:08.330Z,75.46
2023-02-05T16:27:42.322Z,75.09
2023-02-05T16:30:18.096Z,74.93
2023-02-05T16:32:48.606Z,74.94
2023-02-05T16:35:24.068Z,74.20
2023-02-05T16:37:52.929Z,74.09
2023-02-05T16:40:35.396Z,74.34
2023-02-05T16:43:21.089Z,73.22
2023-02-05T16:46:20.658Z,73.50
2023-02-05T16:48:54.950Z,75.28
2023-02-05T16:51:32.907Z,74.63
2023-02-05T16:54:02.343Z,75.17
2023-02-05T16:56:33.621Z,74.23
2023-02-05T16:59:04.450Z,74.76
2023-02-05T17:01:39.906Z,74.61
2023-02-05T17:04:09.584Z,74.60
2023-02-05T17:06:39.618Z,74.54
2023-02-05T17:09:08.058Z,75.24
2023-02-05T17:11:38.545Z,74.68
2023-02-05T17:14:23.866Z,74.12
2023-02-05T17:16:56.608Z,74.67
2023-02-05T17:19:28.018Z,75.16
2023-02-05T17:22:18.811Z,74.62
2023-02-05T17:24:49.146Z,74.58
2023-02-05T17:27:18.616Z,75.47
2023-02-05T17:29:47.468Z,75.20
2023-02-05T17:32:18.013Z,75.01
2023-02-05T17:34:48.480Z,75.68
2023-02-05T17:37:17.206Z,74.88
2023-02-05T17:39:45.737Z,74.36
2023-02-05T17:42:21.971Z,74.02
2023-02-05T17:44:50.542Z,73.57
2023-02-05T17:47:18.753Z,73.84
2023-02-05T17:49:48.219Z,74.09
2023-02-05T17:52:16.617Z,75.02
2023-02-05T17:54:46.330Z,74.87
2023-02-05T17:57:17.549Z,74.04
2023-02-05T17:59:46.156Z,73.48
2023-02-05T18:02:15.621Z,74.84
2023-02-05T18:04:44.976Z,75.06
2023-02-05T18:07:22.789Z,73.46
2023-02-05T18:09:50.920Z,73.47
2023-02-05T18:12:18.993Z,72.98
2023-02-05T18:14:47.046Z,73.41
2023-02-05T18:17:15.170Z,74.43
2023-02-05T18:19:43.290Z,75.50
2023-02-05T18:22:11.867Z,75.71
2023-02-05T18:24:41.371Z,75.96
2023-02-05T18:27:12.117Z,76.15
2023-02-05T18:29:42.716Z,75.53
2023-02-05T18:32:14.016Z,75.95
2023-02-05T18:34:42.475Z,75.98
2023-02-05T18:37:10.619Z,76.78
2023-02-05T18:39:38.737Z,76.17
2023-02-05T18:42:08.364Z,77.23
2023-02-05T18:44:36.744Z,77.46
2023-02-05T18:47:06.032Z,77.91
2023-02-05T18:49:34.950Z,77.99
2023-02-05T18:52:03.072Z,76.80
2023-02-05T18:54:31.314Z,76.11
2023-02-05T18:56:59.367Z,76.14
2023-02-05T18:59:29.034Z,75.79
2023-02-05T19:01:57.159Z,75.11
2023-02-05T19:04:27.993Z,75.35
2023-02-05T19:06:56.221Z,75.50
2023-02-05T19:09:25.744Z,75.57
2023-02-05T19:11:55.415Z,75.18
2023-02-05T19:14:25.620Z,75.06
2023-02-05T19:16:55.149Z,74.92
2023-02-05T19:19:25.720Z,74.40
2023-02-05T19:21:54.654Z,75.34
2023-02-05T19:24:23.402Z,74.77
2023-02-05T19:26:51.593Z,74.97
2023-02-05T19:29:21.815Z,75.53
2023-02-05T19:31:50.665Z,74.79
2023-02-05T19:34:22.152Z,74.94
2023-02-05T19:36:53.391Z,74.70
2023-02-05T19:39:21.538Z,75.25
2023-02-05T19:41:51.379Z,75.86
2023-02-05T19:44:20.458Z,74.50
2023-02-05T19:46:50.480Z,74.15
2023-02-05T19:49:22.400Z,74.39
2023-02-05T19:51:52.356Z,75.99
2023-02-05T19:54:21.727Z,76.04
2023-02-05T19:56:50.261Z,75.48
2023-02-05T19:59:18.825Z,74.43
2023-02-05T20:01:47.278Z,74.81
2023-02-05T20:04:17.764Z,75.99
2023-02-05T20:06:48.169Z,75.94
2023-02-05T20:09:17.846Z,75.71
2023-02-05T20:11:47.566Z,75.45
2023-02-05T20:14:17.483Z,74.90
2023-02-05T20:16:46.197Z,75.51
2023-02-05T20:19:16.018Z,74.96
2023-02-05T20:21:45.016Z,75.50
2023-02-05T20:24:16.344Z,74.93
2023-02-05T20:26:45.088Z,74.39
2023-02-05T20:29:30.452Z,74.07
2023-02-05T20:32:00.626Z,73.56
2023-02-05T20:34:33.336Z,73.84
2023-02-05T20:37:06.218Z,73.52
2023-02-05T20:39:39.761Z,73.70
2023-02-05T20:42:08.006Z,73.91
2023-02-05T20:44:37.244Z,73.50
2023-02-05T20:47:05.907Z,73.44
2023-02-05T20:49:35.858Z,74.07
2023-02-05T20:52:04.123Z,73.87
2023-02-05T20:54:32.301Z,72.95
2023-02-05T20:57:01.960Z,74.80
2023-02-05T20:59:32.774Z,74.46
2023-02-05T21:02:01.015Z,74.78
2023-02-05T21:04:29.561Z,73.56
2023-02-05T21:06:58.456Z,74.17
2023-02-05T21:09:26.561Z,74.58
2023-02-05T21:11:55.627Z,74.26
2023-02-05T21:14:25.375Z,74.35
2023-02-05T21:16:53.671Z,73.69
2023-02-05T21:19:21.849Z,73.28
2023-02-05T21:21:54.178Z,72.47
2023-02-05T21:24:22.267Z,72.53
2023-02-05T21:26:51.015Z,72.11
2023-02-05T21:29:20.750Z,71.71
2023-02-05T21:31:53.163Z,71.24
2023-02-05T21:34:26.463Z,71.13
2023-02-05T21:36:57.624Z,71.09
2023-02-05T21:39:27.310Z,71.99
2023-02-05T21:41:55.746Z,72.03
2023-02-05T21:44:24.064Z,72.60
2023-02-05T21:46:55.385Z,72.22
2023-02-05T21:49:23.889Z,71.82
2023-02-05T21:51:53.421Z,73.00
2023-02-05T21:54:25.343Z,74.00
2023-02-05T21:56:53.974Z,73.41
2023-02-05T21:59:22.072Z,73.65
2023-02-05T22:01:50.461Z,73.04
2023-02-05T22:04:20.084Z,73.93
2023-02-05T22:06:48.178Z,73.73
2023-02-05T22:09:17.766Z,73.87
2023-02-05T22:11:46.207Z,73.61
2023-02-05T22:14:14.303Z,73.56
2023-02-05T22:16:42.518Z,74.79
2023-02-05T22:19:11.064Z,75.12
2023-02-05T22:21:42.668Z,75.46
2023-02-05T22:24:15.463Z,74.92
2023-02-05T22:26:44.077Z,75.36
2023-02-05T22:29:14.301Z,74.82
2023-02-05T22:31:44.417Z,75.24
2023-02-05T22:34:12.601Z,74.93
2023-02-05T22:36:42.032Z,74.04
2023-02-05T22:39:10.160Z,74.10
2023-02-05T22:41:40.574Z,74.72
2023-02-05T22:44:10.418Z,75.40
2023-02-05T22:46:41.014Z,75.78
2023-02-05T22:49:09.511Z,74.54
2023-02-05T22:51:40.409Z,74.44
2023-02-05T22:54:12.810Z,75.29
2023-02-05T22:56:40.837Z,74.84
2023-02-05T22:59:08.998Z,76.11
2023-02-05T23:01:39.018Z,75.70
2023-02-05T23:04:09.249Z,75.94
2023-02-05T23:06:39.140Z,75.43
2023-02-05T23:09:11.023Z,75.10
2023-02-05T23:11:39.239Z,74.62
2023-02-05T23:14:08.393Z,75.36
2023-02-05T23:16:38.832Z,74.75
2023-02-05T23:19:10.599Z,74.73
2023-02-05T23:21:40.351Z,74.96
2023-02-05T23:24:10.283Z,74.26
2023-02-05T23:26:42.327Z,74.03
2023-02-05T23:29:11.637Z,75.36
2023-02-05T23:31:40.138Z,75.27
2023-02-05T23:34:08.338Z,76.33
2023-02-05T23:36:36.452Z,75.48
2023-02-05T23:39:04.868Z,74.55
2023-02-05T23:41:37.260Z,75.02
2023-02-05T23:44:07.830Z,74.92
2023-02-05T23:46:36.831Z,75.95
2023-02-05T23:49:05.686Z,75.33
2023-02-05T23:51:34.421Z,75.13
2023-02-05T23:54:03.374Z,75.79
2023-02-05T23:56:31.705Z,75.62
2023-02-05T23:59:01.908Z,75.62
